TimeMST,TemperatureF,Dew PointF,Humidity,Sea Level PressureIn,VisibilityMPH,Wind Direction,Wind SpeedMPH,Gust SpeedMPH,PrecipitationIn,Events,Conditions,WindDirDegrees,DateUTC
12:16 AM,24.8,-0.4,34,29.85,10.0,NNW,3.5,-,N/A,,Clear,330,2012-12-30 07:16:00
12:36 AM,24.8,-0.4,34,29.85,10.0,Calm,Calm,-,N/A,,Clear,0,2012-12-30 07:36:00
12:56 AM,23.0,-0.4,36,29.85,10.0,Calm,Calm,-,N/A,,Clear,0,2012-12-30 07:56:00
1:16 AM,19.4,-0.4,42,29.85,10.0,Calm,Calm,-,N/A,,Clear,0,2012-12-30 08:16:00
1:36 AM,19.4,-2.2,39,29.86,10.0,SW,3.5,-,N/A,,Clear,220,2012-12-30 08:36:00
1:56 AM,21.2,-2.2,36,29.86,10.0,SSW,4.6,-,N/A,,Clear,200,2012-12-30 08:56:00
2:15 AM,21.2,-0.4,39,29.86,10.0,SW,4.6,-,N/A,,Clear,230,2012-12-30 09:15:00
2:36 AM,21.2,-0.4,39,29.87,10.0,WSW,5.8,-,N/A,,Clear,250,2012-12-30 09:36:00
2:56 AM,23.0,1.4,39,29.86,10.0,West,4.6,-,N/A,,Clear,270,2012-12-30 09:56:00
3:16 AM,24.8,-2.2,31,29.87,10.0,West,3.5,-,N/A,,Clear,280,2012-12-30 10:16:00
3:36 AM,26.6,-4.0,26,29.86,10.0,WSW,3.5,-,N/A,,Clear,250,2012-12-30 10:36:00
3:56 AM,26.6,-4.0,26,29.87,10.0,West,3.5,-,N/A,,Clear,280,2012-12-30 10:56:00
4:16 AM,28.4,-5.8,23,29.87,10.0,West,3.5,-,N/A,,Clear,260,2012-12-30 11:16:00
4:36 AM,24.8,-4.0,28,29.87,10.0,West,3.5,-,N/A,,Clear,260,2012-12-30 11:36:00
4:56 AM,23.0,-4.0,31,29.88,10.0,West,4.6,-,N/A,,Clear,260,2012-12-30 11:56:00
5:52 AM,26.6,-7.6,22,29.88,20.0,Calm,Calm,-,N/A,,Scattered Clouds,0,2012-12-30 12:52:00
6:54 AM,28.4,-11.2,18,29.89,20.0,Calm,Calm,-,N/A,,Scattered Clouds,0,2012-12-30 13:54:00
7:45 AM,28.4,-11.2,18,29.88,30.0,West,4.6,-,N/A,,Scattered Clouds,270,2012-12-30 14:45:00
8:48 AM,35.6,-13.0,12,29.88,45.0,NW,4.6,-,N/A,,Partly Cloudy,320,2012-12-30 15:48:00
9:47 AM,32.0,3.2,30,29.90,60.0,Calm,Calm,-,N/A,,Partly Cloudy,0,2012-12-30 16:47:00
10:47 AM,39.2,-0.4,19,29.90,60.0,SE,3.5,-,N/A,,Partly Cloudy,140,2012-12-30 17:47:00
11:50 AM,39.2,3.2,22,29.88,50.0,North,8.1,-,N/A,,Scattered Clouds,350,2012-12-30 18:50:00
12:48 PM,35.6,6.8,30,29.86,50.0,NNW,9.2,-,N/A,,Scattered Clouds,330,2012-12-30 19:48:00
1:50 PM,32.0,10.4,41,29.87,50.0,North,15.0,-,N/A,,Scattered Clouds,350,2012-12-30 20:50:00
2:48 PM,30.2,8.6,40,29.89,50.0,NNW,15.0,-,N/A,,Scattered Clouds,330,2012-12-30 21:48:00
3:52 PM,28.4,10.4,47,29.91,50.0,NNW,17.3,-,N/A,,Scattered Clouds,330,2012-12-30 22:52:00
4:48 PM,28.4,10.4,47,29.93,40.0,NW,17.3,-,N/A,,Mostly Cloudy,320,2012-12-30 23:48:00
5:48 PM,28.4,12.2,51,29.95,25.0,NNW,17.3,-,N/A,,Mostly Cloudy,340,2012-12-31 00:48:00
6:47 PM,28.4,15.8,59,29.97,30.0,North,9.2,-,N/A,,Mostly Cloudy,350,2012-12-31 01:47:00
7:46 PM,26.6,12.2,55,29.98,30.0,NNW,6.9,-,N/A,,Mostly Cloudy,330,2012-12-31 02:46:00
8:48 PM,24.8,10.4,54,29.98,30.0,NW,9.2,-,N/A,,Mostly Cloudy,320,2012-12-31 03:48:00
10:16 PM,24.8,10.4,54,29.98,10.0,North,6.9,-,N/A,,Mostly Cloudy,350,2012-12-31 05:16:00
10:36 PM,24.8,10.4,54,29.98,10.0,North,5.8,-,N/A,,Overcast,360,2012-12-31 05:36:00
10:56 PM,24.8,10.4,54,29.98,10.0,North,3.5,-,N/A,,Overcast,360,2012-12-31 05:56:00
11:16 PM,24.8,12.2,59,29.98,10.0,North,6.9,-,N/A,,Overcast,350,2012-12-31 06:16:00
11:35 PM,24.8,12.2,59,29.97,10.0,North,5.8,-,N/A,,Overcast,350,2012-12-31 06:35:00
11:56 PM,23.0,12.2,63,29.97,10.0,North,5.8,-,N/A,,Mostly Cloudy,360,2012-12-31 06:56:00